Cranberry, North Carolina
Current Conditions -  °F | °C
As of 1:15 PM on Wednesday 28 Jan 2015 (Local Time) from KTNB Reporting Station
Clear Clear  
Wind Chill: -3°   Ceiling: Unl
Heat Index:   Visibility: 10mi
Dew Point: -9°   Wind: 10mph
Humidity: 45%   Direction: 270°W
Pressure: 30.15"   Gusts: NA
Location:  36.1731°N, 81.9572°W
Report Text: KTNB 281815Z AUTO 27009KT 10SM CLR 01/M09 A3015 RMK AO2 T00141093
Loading
Personal Weather Stations






























Interactive Weather Map New forecast layout! Learn more

10-Day Weather Forecast

Advertisements
Track Severe Weather on mobile